Roxana, IL (62084)

8:01 AM CST on November 26, 2014 (GMT -0600)
Rosewood Heights | Change Station
CLOSE
Current Station
Personal Weather Station
Location: East Alton, IL
Elevation: 545 ft
Nearby Weather Stations

Elev 545 ft 38.88 °N, 90.07 °W | Updated 3 seconds ago

Partly Cloudy
Partly Cloudy
27.6 °F
Feels Like 28 °F
N
0.0
Wind Variable Wind from ESE
Gusts 3.0 mph

Today
High -- | Low -- °F
--% Chance of Precip.
Yesterday
High -- | Low -- °F
Precip. -- in
6:54 AM 4:40 PM
Waxing Crescent, 20% visible
Pressure 30.08 in
Visibility 10.0 miles
Clouds Mostly Cloudy 5000 ft
Windchill 28 °F
Dew Point 24 °F
Humidity 88%
Rainfall 0.00 in
Snow Depth Not available.
UV 0 out of 12
Pollen .40 out of 12
Air Quality Not available.
Flu Activity Not available.
METAR KALN 261350Z 13010KT 10SM BKN050 M02/M03 A3008

More Conditions Fewer Conditions

Pressure 30.08 in
Visibility 10.0 miles
Clouds Mostly Cloudy 5000 ft
Windchill 28 °F
Dew Point 24 °F
Humidity 88%
Rainfall 0.00 in
Snow Depth Not available.
UV 0 out of 12
Pollen .40 out of 12
Air Quality Not available.
Flu Activity Not available.
METAR KALN 261350Z 13010KT 10SM BKN050 M02/M03 A3008

More Conditions Fewer Conditions

10-Day Weather Forecast

Almanac

Astronomy

Nov. 26, 2014 Rise Set
Actual Time
Civil Twilight
Nautical Twilight
Astronomical Twilight
Moon
Length of Visible Light
Length of Day
Tomorrow will be .
, % of the Moon is Illuminated

Today's Extremes

State Highs State Lows

Community

WunderPhotos

Upload Photos

1,773,745 photos uploaded!

WunderBlogs® & News

Nearby

Air Quality

  Air Quality AQ Index Pollutant
Not available.

Snow Depth

Station Depth Elevation

Earthquake Activity

City Distance Mag. Time & Date
Minimum magnitude displayed is 2.5.

Coastal Water Temperatures

Place Temperature

Nearby Weather Stations